createdAt,value
2022-09-05T00:00:31.681Z,0.00
2022-09-05T00:01:31.648Z,0.00
2022-09-05T00:02:31.734Z,0.00
2022-09-05T00:03:31.996Z,0.00
2022-09-05T00:04:31.745Z,0.00
2022-09-05T00:05:31.629Z,0.00
2022-09-05T00:06:31.597Z,0.00
2022-09-05T00:07:58.186Z,0.00
2022-09-05T00:08:32.572Z,0.00
2022-09-05T00:09:31.559Z,0.00
2022-09-05T00:10:37.188Z,0.00
2022-09-05T00:11:42.932Z,0.00
2022-09-05T00:12:32.525Z,0.00
2022-09-05T00:13:31.513Z,0.00
2022-09-05T00:14:34.248Z,0.00
2022-09-05T00:15:32.510Z,0.00
2022-09-05T00:16:31.547Z,0.00
2022-09-05T00:17:47.184Z,0.00
2022-09-05T00:21:35.168Z,0.00
2022-09-05T00:24:18.659Z,0.00
2022-09-05T00:24:21.888Z,0.00
2022-09-05T00:24:27.974Z,0.00
2022-09-05T00:24:29.812Z,0.00
2022-09-05T00:24:31.149Z,0.00
2022-09-05T00:24:54.800Z,0.00
2022-09-05T00:25:33.005Z,0.00
2022-09-05T00:26:31.381Z,0.00
2022-09-05T00:27:31.391Z,0.00
2022-09-05T00:28:31.344Z,0.00
2022-09-05T00:30:52.349Z,0.00
2022-09-05T00:31:51.144Z,0.00
2022-09-05T00:31:53.447Z,0.00
2022-09-05T00:32:32.612Z,0.00
2022-09-05T00:33:31.553Z,0.00
2022-09-05T00:34:46.983Z,0.00
2022-09-05T00:35:32.273Z,0.00
2022-09-05T00:36:31.255Z,0.00
2022-09-05T00:37:31.244Z,0.00
2022-09-05T00:38:36.460Z,0.00
2022-09-05T00:39:32.278Z,0.00
2022-09-05T00:40:31.526Z,0.00
2022-09-05T00:41:34.221Z,0.00
2022-09-05T00:42:31.213Z,0.00
2022-09-05T00:43:31.174Z,0.00
2022-09-05T00:44:31.162Z,0.00
2022-09-05T00:45:31.152Z,0.00
2022-09-05T00:46:32.182Z,0.00
2022-09-05T00:47:31.130Z,0.00
2022-09-05T00:48:31.147Z,0.00
2022-09-05T00:49:31.134Z,0.00
2022-09-05T00:50:31.099Z,0.00
2022-09-05T00:51:34.776Z,0.00
2022-09-05T00:52:31.071Z,0.00
2022-09-05T00:53:31.080Z,0.00
2022-09-05T00:54:40.905Z,0.00
2022-09-05T00:55:32.040Z,0.00
2022-09-05T00:56:31.031Z,0.00
2022-09-05T00:57:31.019Z,0.00
2022-09-05T00:58:34.130Z,0.00
2022-09-05T00:59:31.014Z,0.00
2022-09-05T01:00:30.981Z,0.00
2022-09-05T01:01:31.148Z,0.00
2022-09-05T01:02:31.126Z,0.00
2022-09-05T01:03:31.944Z,0.00
2022-09-05T01:04:30.984Z,0.00
2022-09-05T01:05:30.925Z,0.00
2022-09-05T01:06:30.925Z,0.00
2022-09-05T01:07:30.921Z,0.00
2022-09-05T01:08:30.892Z,0.00
2022-09-05T01:09:30.878Z,0.00
2022-09-05T01:10:30.868Z,0.00
2022-09-05T01:11:30.875Z,0.00
2022-09-05T01:12:30.848Z,0.00
2022-09-05T01:13:30.837Z,0.00
2022-09-05T01:14:30.842Z,0.00
2022-09-05T01:15:32.689Z,0.00
2022-09-05T01:16:30.800Z,0.00
2022-09-05T01:17:30.801Z,0.00
2022-09-05T01:18:30.783Z,0.00
2022-09-05T01:19:30.792Z,0.00
2022-09-05T01:20:32.093Z,0.00
2022-09-05T01:21:30.777Z,0.00
2022-09-05T01:22:30.734Z,0.00
2022-09-05T01:23:30.728Z,0.00
2022-09-05T01:24:30.713Z,0.00
2022-09-05T01:25:30.707Z,0.00
2022-09-05T01:26:30.708Z,0.00
2022-09-05T01:27:33.862Z,0.00
2022-09-05T01:29:15.698Z,0.00
2022-09-05T01:29:31.653Z,0.00
2022-09-05T01:30:31.790Z,0.00
2022-09-05T01:31:30.891Z,0.00
2022-09-05T01:32:30.620Z,0.00
2022-09-05T01:33:30.631Z,0.00
2022-09-05T01:34:31.322Z,0.00
2022-09-05T01:35:30.589Z,0.00
2022-09-05T01:36:30.595Z,0.00
2022-09-05T01:37:33.329Z,0.00
2022-09-05T01:38:30.558Z,0.00
2022-09-05T01:40:01.778Z,0.00
2022-09-05T01:40:31.591Z,0.00
2022-09-05T01:41:30.605Z,0.00
2022-09-05T01:42:31.751Z,0.00
2022-09-05T01:43:30.502Z,0.00
2022-09-05T01:44:30.559Z,0.00
2022-09-05T01:45:39.384Z,0.00
2022-09-05T01:46:31.594Z,0.00
2022-09-05T01:47:31.273Z,0.00
2022-09-05T01:48:30.452Z,0.00
2022-09-05T01:49:30.429Z,0.00
2022-09-05T01:50:30.417Z,0.00
2022-09-05T01:51:31.473Z,0.00
2022-09-05T01:52:30.415Z,0.00
2022-09-05T01:53:30.387Z,0.00
2022-09-05T01:54:30.379Z,0.00
2022-09-05T01:55:30.365Z,0.00
2022-09-05T01:56:30.357Z,0.00
2022-09-05T01:57:30.363Z,0.00
2022-09-05T01:58:31.936Z,0.00
2022-09-05T01:59:30.325Z,0.00
2022-09-05T02:00:30.304Z,0.00
2022-09-05T02:01:32.895Z,0.00
2022-09-05T02:02:30.417Z,0.00
2022-09-05T02:03:30.277Z,0.00
2022-09-05T02:04:30.264Z,0.00
2022-09-05T02:05:47.476Z,0.00
2022-09-05T02:06:31.239Z,0.00
2022-09-05T02:07:31.786Z,0.00
2022-09-05T02:08:30.215Z,0.00
2022-09-05T02:09:30.204Z,0.00
2022-09-05T02:10:30.215Z,0.00
2022-09-05T02:11:35.399Z,0.00
2022-09-05T02:12:31.171Z,0.00
2022-09-05T02:13:30.162Z,0.00
2022-09-05T02:14:34.050Z,0.00
2022-09-05T02:15:30.195Z,0.00
2022-09-05T02:16:30.124Z,0.00
2022-09-05T02:17:50.942Z,0.00
2022-09-05T02:18:31.101Z,0.00
2022-09-05T02:19:30.120Z,0.00
2022-09-05T02:20:30.101Z,0.00
2022-09-05T02:21:30.070Z,0.00
2022-09-05T02:22:30.057Z,0.00
2022-09-05T02:23:41.733Z,0.00
2022-09-05T02:24:31.079Z,0.00
2022-09-05T02:26:00.998Z,0.00
2022-09-05T02:26:31.010Z,0.00
2022-09-05T02:28:03.767Z,0.00
2022-09-05T02:28:31.008Z,0.00
2022-09-05T02:29:30.088Z,0.00
2022-09-05T02:30:29.973Z,0.00
2022-09-05T02:31:30.075Z,0.00
2022-09-05T02:32:29.947Z,0.00
2022-09-05T02:33:29.968Z,0.00
2022-09-05T02:34:29.924Z,0.00
2022-09-05T02:35:29.913Z,0.00
2022-09-05T02:36:29.900Z,0.00
2022-09-05T02:39:33.502Z,0.00
2022-09-05T02:40:29.817Z,0.00
2022-09-05T02:45:04.041Z,0.00
2022-09-05T02:45:09.793Z,0.00
2022-09-05T02:45:11.420Z,0.00
2022-09-05T02:45:19.182Z,0.00
2022-09-05T02:45:19.933Z,0.00
2022-09-05T02:45:24.017Z,0.00
2022-09-05T02:45:31.425Z,0.00
2022-09-05T02:46:29.919Z,0.00
2022-09-05T02:47:29.776Z,0.00
2022-09-05T02:48:29.771Z,0.00
2022-09-05T02:51:11.176Z,0.00
2022-09-05T02:54:15.780Z,0.00
2022-09-05T02:57:28.116Z,0.00
2022-09-05T02:57:30.072Z,0.00
2022-09-05T02:57:33.494Z,0.00
2022-09-05T02:57:35.419Z,0.00
2022-09-05T02:57:37.224Z,0.00
2022-09-05T02:57:43.275Z,0.00
2022-09-05T02:58:05.209Z,0.00
2022-09-05T02:58:47.844Z,0.00
2022-09-05T02:59:36.157Z,0.00
2022-09-05T03:00:30.860Z,0.00
2022-09-05T03:01:29.653Z,0.00
2022-09-05T03:02:29.720Z,0.00
2022-09-05T03:03:29.596Z,0.00
2022-09-05T03:04:29.583Z,0.00
2022-09-05T03:05:29.611Z,0.00
2022-09-05T03:06:35.114Z,0.00
2022-09-05T03:07:30.550Z,0.00
2022-09-05T03:08:29.540Z,0.00
2022-09-05T03:09:29.562Z,0.00
2022-09-05T03:10:53.447Z,0.00
2022-09-05T03:11:30.508Z,0.00
2022-09-05T03:12:30.011Z,0.00
2022-09-05T03:13:29.485Z,0.00
2022-09-05T03:14:29.472Z,0.00
2022-09-05T03:15:29.487Z,0.00
2022-09-05T03:16:29.498Z,0.00
2022-09-05T03:17:29.602Z,0.00
2022-09-05T03:18:29.430Z,0.00
2022-09-05T03:19:29.415Z,0.00
2022-09-05T03:20:29.423Z,0.00
2022-09-05T03:21:29.393Z,0.00
2022-09-05T03:22:33.627Z,0.00
2022-09-05T03:23:33.090Z,0.00
2022-09-05T03:24:29.382Z,0.00
2022-09-05T03:25:29.351Z,0.00
2022-09-05T03:26:29.342Z,0.00
2022-09-05T03:27:29.520Z,0.00
2022-09-05T03:28:29.316Z,0.00
2022-09-05T03:29:29.306Z,0.00
2022-09-05T03:30:29.367Z,0.00
2022-09-05T03:31:29.325Z,0.00
2022-09-05T03:32:29.289Z,0.00
2022-09-05T03:33:29.257Z,0.00
2022-09-05T03:34:29.254Z,0.00
2022-09-05T03:35:29.233Z,0.00
2022-09-05T03:36:29.223Z,0.00
2022-09-05T03:37:29.231Z,0.00
2022-09-05T03:38:29.205Z,0.00
2022-09-05T03:39:29.264Z,0.00
2022-09-05T03:40:29.178Z,0.00
2022-09-05T03:41:36.767Z,0.00
2022-09-05T03:42:31.196Z,0.00
2022-09-05T03:43:29.206Z,0.00
2022-09-05T03:44:29.159Z,0.00
2022-09-05T03:45:36.470Z,0.00
2022-09-05T03:46:30.219Z,0.00
2022-09-05T03:47:29.110Z,0.00
2022-09-05T03:48:29.396Z,0.00
2022-09-05T03:52:47.087Z,0.00
2022-09-05T03:57:05.781Z,0.00
2022-09-05T03:57:06.348Z,0.00
2022-09-05T03:57:07.071Z,0.00
2022-09-05T03:57:12.145Z,0.00
2022-09-05T03:57:17.490Z,0.00
2022-09-05T03:57:22.792Z,0.00
2022-09-05T03:57:23.305Z,0.00
2022-09-05T03:57:42.390Z,0.00
2022-09-05T03:58:55.537Z,0.00
2022-09-05T03:59:29.962Z,0.00
2022-09-05T04:00:28.953Z,0.00
2022-09-05T04:05:18.637Z,0.00
2022-09-05T04:08:05.746Z,0.00
2022-09-05T04:08:11.550Z,0.00
2022-09-05T04:08:17.883Z,0.00
2022-09-05T04:08:18.542Z,4.00
2022-09-05T04:08:18.632Z,0.00
2022-09-05T04:08:23.790Z,0.00
2022-09-05T04:08:41.262Z,4.00
2022-09-05T04:09:49.327Z,0.00
2022-09-05T04:10:29.981Z,0.00
2022-09-05T04:11:28.830Z,4.00
2022-09-05T04:12:28.824Z,0.00
2022-09-05T04:13:28.826Z,4.00
2022-09-05T04:14:28.798Z,4.00
2022-09-05T04:15:28.783Z,4.00
2022-09-05T04:16:28.824Z,4.00
2022-09-05T04:17:28.782Z,4.00
2022-09-05T04:18:33.106Z,8.00
2022-09-05T04:19:29.735Z,8.00
2022-09-05T04:20:28.733Z,12.00
2022-09-05T04:21:28.739Z,8.00
2022-09-05T04:22:28.708Z,12.00
2022-09-05T04:23:28.692Z,16.00
2022-09-05T04:24:28.681Z,16.00
2022-09-05T04:25:28.668Z,20.00
2022-09-05T04:26:28.683Z,20.00
2022-09-05T04:27:28.646Z,24.00
2022-09-05T04:28:28.638Z,28.00
2022-09-05T04:29:28.624Z,32.00
2022-09-05T04:30:39.358Z,36.00
2022-09-05T04:31:29.664Z,40.00
2022-09-05T04:32:28.604Z,44.00
2022-09-05T04:33:37.079Z,52.00
2022-09-05T04:34:29.589Z,56.00
2022-09-05T04:35:28.557Z,64.00
2022-09-05T04:36:28.551Z,68.00
2022-09-05T04:37:28.533Z,72.00
2022-09-05T04:38:29.545Z,80.00
2022-09-05T04:39:28.572Z,80.00
2022-09-05T04:40:32.695Z,88.00
2022-09-05T04:41:39.354Z,96.00
2022-09-05T04:42:29.474Z,108.00
2022-09-05T04:43:28.489Z,112.00
2022-09-05T04:44:28.457Z,124.00
2022-09-05T04:45:28.462Z,132.00
2022-09-05T04:46:28.460Z,144.00
2022-09-05T04:47:28.418Z,160.00
2022-09-05T04:48:28.410Z,172.00
2022-09-05T04:49:28.417Z,184.00
2022-09-05T04:50:38.310Z,200.00
2022-09-05T04:51:29.374Z,212.00
2022-09-05T04:52:31.529Z,224.00
2022-09-05T04:53:28.373Z,228.00
2022-09-05T04:54:30.247Z,236.00
2022-09-05T04:55:28.358Z,240.00
2022-09-05T04:56:28.339Z,240.00
2022-09-05T04:57:28.326Z,240.00
2022-09-05T04:59:22.318Z,244.00
2022-09-05T05:02:58.318Z,252.00
2022-09-05T05:05:59.724Z,276.00
2022-09-05T05:06:03.734Z,268.00
2022-09-05T05:06:12.052Z,288.00
2022-09-05T05:06:18.351Z,284.00
2022-09-05T05:06:18.515Z,312.00
2022-09-05T05:06:19.104Z,300.00
2022-09-05T05:06:42.211Z,328.00
2022-09-05T05:07:29.326Z,344.00
2022-09-05T05:08:38.315Z,360.00
2022-09-05T05:09:29.169Z,372.00
2022-09-05T05:13:43.689Z,372.00
2022-09-05T05:17:57.485Z,408.00
2022-09-05T05:18:00.789Z,380.00
2022-09-05T05:18:02.949Z,448.00
2022-09-05T05:18:08.633Z,468.00
2022-09-05T05:18:09.412Z,500.00
2022-09-05T05:18:13.562Z,464.00
2022-09-05T05:18:16.108Z,464.00
2022-09-05T05:18:40.987Z,532.00
2022-09-05T05:19:29.163Z,564.00
2022-09-05T05:20:41.748Z,584.00
2022-09-05T05:21:29.031Z,588.00
2022-09-05T05:22:28.042Z,584.00
2022-09-05T05:23:28.013Z,592.00
2022-09-05T05:24:28.022Z,604.00
2022-09-05T05:25:28.048Z,608.00
2022-09-05T05:26:27.997Z,632.00
2022-09-05T05:27:27.965Z,680.00
2022-09-05T05:28:28.156Z,708.00
2022-09-05T05:29:27.943Z,720.00
2022-09-05T05:30:27.934Z,728.00
2022-09-05T05:31:27.967Z,740.00
2022-09-05T05:32:45.165Z,764.00
2022-09-05T05:33:28.920Z,788.00
2022-09-05T05:34:27.889Z,796.00
2022-09-05T05:35:27.876Z,792.00
2022-09-05T05:36:27.877Z,780.00
2022-09-05T05:37:27.854Z,796.00
2022-09-05T05:38:27.865Z,860.00
2022-09-05T05:39:27.871Z,944.00
2022-09-05T05:40:28.764Z,1020.00
2022-09-05T05:41:27.870Z,1068.00
2022-09-05T05:42:27.837Z,1084.00
2022-09-05T05:43:27.807Z,1080.00
2022-09-05T05:44:27.795Z,1072.00
2022-09-05T05:45:27.770Z,1096.00
2022-09-05T05:46:27.815Z,1176.00
2022-09-05T05:47:31.940Z,1248.00
2022-09-05T05:48:27.762Z,1292.00
2022-09-05T05:49:27.722Z,1324.00
2022-09-05T05:50:27.708Z,1344.00
2022-09-05T05:51:34.622Z,1356.00
2022-09-05T05:52:28.705Z,1384.00
2022-09-05T05:53:29.196Z,1436.00
2022-09-05T05:54:28.662Z,1472.00
2022-09-05T05:55:52.042Z,1508.00
2022-09-05T05:56:28.663Z,1552.00
2022-09-05T05:57:27.638Z,1592.00
2022-09-05T05:58:32.613Z,1620.00
2022-09-05T05:59:28.607Z,1616.00
2022-09-05T06:00:28.270Z,1600.00
2022-09-05T06:01:37.306Z,1656.00
2022-09-05T06:02:28.805Z,1744.00
2022-09-05T06:03:27.847Z,1804.00
2022-09-05T06:04:27.552Z,1828.00
2022-09-05T06:05:27.540Z,1840.00
2022-09-05T06:06:27.548Z,1864.00
2022-09-05T06:07:27.515Z,1928.00
2022-09-05T06:11:20.438Z,1964.00
2022-09-05T06:13:24.206Z,1952.00
2022-09-05T06:14:50.528Z,2008.00
2022-09-05T06:14:59.462Z,2056.00
2022-09-05T06:15:01.460Z,2124.00
2022-09-05T06:15:04.946Z,2176.00
2022-09-05T06:15:05.892Z,2092.00
2022-09-05T06:15:28.875Z,2208.00
2022-09-05T06:16:27.473Z,2220.00
2022-09-05T06:17:28.266Z,2256.00
2022-09-05T06:18:27.392Z,2328.00
2022-09-05T06:19:28.884Z,2384.00
2022-09-05T06:22:05.887Z,2432.00
2022-09-05T06:22:08.690Z,2464.00
2022-09-05T06:22:28.350Z,2496.00
2022-09-05T06:23:39.150Z,2508.00
2022-09-05T06:24:28.344Z,2508.00
2022-09-05T06:25:27.311Z,2484.00
2022-09-05T06:26:27.300Z,2476.00
2022-09-05T06:27:27.288Z,2456.00
2022-09-05T06:28:27.279Z,2440.00
2022-09-05T06:29:35.208Z,2416.00
2022-09-05T06:30:28.255Z,2392.00
2022-09-05T06:31:30.577Z,2364.00
2022-09-05T06:32:27.233Z,2324.00
2022-09-05T06:33:27.240Z,2292.00
2022-09-05T06:34:33.435Z,2272.00
2022-09-05T06:35:28.197Z,2260.00
2022-09-05T06:36:27.209Z,2244.00
2022-09-05T06:37:27.175Z,2212.00
2022-09-05T06:38:27.311Z,2164.00
2022-09-05T06:39:27.221Z,2192.00
2022-09-05T06:40:31.462Z,2176.00
2022-09-05T06:41:27.153Z,2188.00
2022-09-05T06:42:42.194Z,2244.00
2022-09-05T06:43:28.108Z,2268.00
2022-09-05T06:44:27.098Z,2304.00
2022-09-05T06:45:28.808Z,2272.00
2022-09-05T06:46:55.084Z,2360.00
2022-09-05T06:47:34.339Z,2416.00
2022-09-05T06:48:46.399Z,2456.00
2022-09-05T06:49:32.182Z,2496.00
2022-09-05T06:50:28.243Z,2520.00
2022-09-05T06:51:27.025Z,2512.00
2022-09-05T06:52:28.435Z,2504.00
2022-09-05T06:53:26.993Z,2536.00
2022-09-05T06:54:27.003Z,2560.00
2022-09-05T06:55:27.028Z,2584.00
2022-09-05T06:56:26.961Z,2632.00
2022-09-05T06:57:26.968Z,2692.00
2022-09-05T06:58:26.947Z,2736.00
2022-09-05T06:59:26.925Z,2776.00
2022-09-05T07:00:26.915Z,2800.00
2022-09-05T07:01:39.975Z,2824.00
2022-09-05T07:02:59.298Z,2864.00
2022-09-05T07:03:28.038Z,2904.00
2022-09-05T07:05:14.777Z,2952.00
2022-09-05T07:05:39.651Z,2956.00
2022-09-05T07:06:34.338Z,2948.00
2022-09-05T07:07:27.886Z,2864.00
2022-09-05T07:08:35.694Z,2840.00
2022-09-05T07:09:28.421Z,2820.00
2022-09-05T07:10:40.408Z,2664.00
2022-09-05T07:11:27.936Z,3004.00
2022-09-05T07:12:30.017Z,3100.00
2022-09-05T07:13:26.769Z,3160.00
2022-09-05T07:14:26.757Z,3236.00
2022-09-05T07:15:26.768Z,3180.00
2022-09-05T07:16:37.301Z,2620.00
2022-09-05T07:17:27.721Z,2324.00
2022-09-05T07:18:26.718Z,2276.00
2022-09-05T07:19:26.811Z,2244.00
2022-09-05T07:20:26.716Z,2240.00
2022-09-05T07:21:27.023Z,2248.00
2022-09-05T07:22:48.144Z,2268.00
2022-09-05T07:24:05.672Z,2312.00
2022-09-05T07:24:53.499Z,2392.00
2022-09-05T07:25:27.664Z,2580.00
2022-09-05T07:26:51.310Z,2900.00
2022-09-05T07:27:27.610Z,3688.00
2022-09-05T07:28:30.273Z,3904.00
2022-09-05T07:29:27.672Z,2876.00
2022-09-05T07:30:26.585Z,3168.00
2022-09-05T07:31:37.163Z,3620.00
2022-09-05T07:32:27.557Z,4004.00
2022-09-05T07:33:26.605Z,4176.00
2022-09-05T07:34:26.534Z,3608.00
2022-09-05T07:35:26.522Z,3088.00
2022-09-05T07:36:26.539Z,2804.00
2022-09-05T07:37:26.498Z,3396.00
2022-09-05T07:38:33.904Z,3820.00
2022-09-05T07:39:29.544Z,4028.00
2022-09-05T07:40:27.069Z,4124.00
2022-09-05T07:41:26.455Z,4480.00
2022-09-05T07:42:26.471Z,4400.00
2022-09-05T07:43:26.684Z,4564.00
2022-09-05T07:44:26.441Z,4428.00
2022-09-05T07:45:26.459Z,4456.00
2022-09-05T07:46:26.416Z,5044.00
2022-09-05T07:47:26.388Z,5056.00
2022-09-05T07:48:35.103Z,5064.00
2022-09-05T07:49:27.365Z,4932.00
2022-09-05T07:52:04.054Z,5172.00
2022-09-05T07:56:48.948Z,5268.00
2022-09-05T07:56:52.991Z,5280.00
2022-09-05T07:56:53.747Z,5216.00
2022-09-05T07:57:08.505Z,4420.00
2022-09-05T07:57:09.216Z,5288.00
2022-09-05T07:57:09.635Z,5168.00
2022-09-05T07:57:32.003Z,4852.00
2022-09-05T07:58:27.262Z,5056.00
2022-09-05T07:59:26.255Z,5044.00
2022-09-05T08:00:29.660Z,5272.00
2022-09-05T08:01:26.303Z,4444.00
2022-09-05T08:02:26.241Z,5404.00
2022-09-05T08:03:26.338Z,5492.00
2022-09-05T08:04:26.200Z,5184.00
2022-09-05T08:05:35.366Z,5328.00
2022-09-05T08:06:35.944Z,5528.00
2022-09-05T08:07:46.669Z,5264.00
2022-09-05T08:08:27.157Z,6316.00
2022-09-05T08:10:06.685Z,6536.00
2022-09-05T08:10:31.146Z,5656.00
2022-09-05T08:11:27.800Z,5316.00
2022-09-05T08:12:27.900Z,5252.00
2022-09-05T08:13:27.456Z,6188.00
2022-09-05T08:14:43.930Z,6136.00
2022-09-05T08:15:27.077Z,6652.00
2022-09-05T08:16:27.113Z,6824.00
2022-09-05T08:17:29.910Z,6988.00
2022-09-05T08:18:26.052Z,7032.00
2022-09-05T08:19:26.033Z,7064.00
2022-09-05T08:20:26.022Z,7040.00
2022-09-05T08:21:27.409Z,6984.00
2022-09-05T08:22:26.019Z,6892.00
2022-09-05T08:23:26.257Z,6844.00
2022-09-05T08:24:25.978Z,5908.00
2022-09-05T08:25:27.490Z,6136.00
2022-09-05T08:26:25.969Z,5008.00
2022-09-05T08:27:25.972Z,6056.00
2022-09-05T08:28:39.000Z,6724.00
2022-09-05T08:29:26.946Z,6416.00
2022-09-05T08:30:27.988Z,6612.00
2022-09-05T08:31:25.977Z,6716.00
2022-09-05T08:32:25.887Z,6656.00
2022-09-05T08:33:25.883Z,6484.00
2022-09-05T08:34:32.771Z,6408.00
2022-09-05T08:35:26.876Z,6488.00
2022-09-05T08:36:25.845Z,6168.00
2022-09-05T08:37:25.834Z,5996.00
2022-09-05T08:38:25.998Z,5296.00
2022-09-05T08:39:26.850Z,5400.00
2022-09-05T08:40:25.889Z,5468.00
2022-09-05T08:41:50.227Z,6200.00
2022-09-05T08:42:26.798Z,6472.00
2022-09-05T08:46:40.457Z,6468.00
2022-09-05T08:46:41.902Z,6408.00
2022-09-05T08:46:42.972Z,6444.00
2022-09-05T08:46:44.407Z,6468.00
2022-09-05T08:47:26.828Z,6340.00
2022-09-05T08:48:25.711Z,6348.00
2022-09-05T08:49:37.934Z,6360.00
2022-09-05T08:50:27.174Z,6304.00
2022-09-05T08:51:25.680Z,6268.00
2022-09-05T08:52:25.690Z,6368.00
2022-09-05T08:53:38.207Z,6372.00
2022-09-05T08:54:26.644Z,6424.00
2022-09-05T08:55:25.636Z,6456.00
2022-09-05T08:56:25.624Z,6480.00
2022-09-05T08:57:25.634Z,6508.00
2022-09-05T08:58:25.602Z,6488.00
2022-09-05T08:59:27.520Z,6480.00
2022-09-05T09:00:27.636Z,6572.00
2022-09-05T09:01:26.709Z,6536.00
2022-09-05T09:02:47.076Z,6392.00
2022-09-05T09:03:26.870Z,6364.00
2022-09-05T09:05:01.629Z,6260.00
2022-09-05T09:05:26.524Z,5740.00
2022-09-05T09:06:26.882Z,5896.00
2022-09-05T09:07:50.809Z,3604.00
2022-09-05T09:08:26.491Z,3548.00
2022-09-05T09:09:25.485Z,3460.00
2022-09-05T09:10:25.831Z,3884.00
2022-09-05T09:11:25.485Z,5188.00
2022-09-05T09:12:25.470Z,5328.00
2022-09-05T09:13:25.522Z,5800.00
2022-09-05T09:14:30.584Z,6016.00
2022-09-05T09:15:26.418Z,6000.00
2022-09-05T09:16:25.505Z,6008.00
2022-09-05T09:17:25.396Z,5996.00
2022-09-05T09:18:25.393Z,5880.00
2022-09-05T09:19:29.266Z,5908.00
2022-09-05T09:20:25.363Z,5976.00
2022-09-05T09:21:25.359Z,6012.00
2022-09-05T09:22:25.365Z,5808.00
2022-09-05T09:23:31.733Z,5940.00
2022-09-05T09:24:26.317Z,5996.00
2022-09-05T09:25:27.913Z,5792.00
2022-09-05T09:26:26.783Z,5888.00
2022-09-05T09:27:41.685Z,5656.00
2022-09-05T09:28:47.814Z,5480.00
2022-09-05T09:29:26.265Z,5424.00
2022-09-05T09:30:25.255Z,4552.00
2022-09-05T09:31:25.305Z,5448.00
2022-09-05T09:32:25.462Z,5116.00
2022-09-05T09:33:27.191Z,5248.00
2022-09-05T09:34:25.214Z,5748.00
2022-09-05T09:35:25.205Z,5508.00
2022-09-05T09:36:25.211Z,5892.00
2022-09-05T09:37:35.600Z,5960.00
2022-09-05T09:38:26.402Z,5412.00
2022-09-05T09:39:37.591Z,4880.00
2022-09-05T09:40:26.143Z,5144.00
2022-09-05T09:41:25.138Z,5668.00
2022-09-05T09:42:33.712Z,5464.00
2022-09-05T09:43:26.134Z,5100.00
2022-09-05T09:44:25.133Z,5776.00
2022-09-05T09:45:28.762Z,5916.00
2022-09-05T09:46:25.138Z,6064.00
2022-09-05T09:47:25.073Z,5840.00
2022-09-05T09:48:25.233Z,5872.00
2022-09-05T09:49:25.068Z,5604.00
2022-09-05T09:50:25.039Z,5944.00
2022-09-05T09:51:25.496Z,5904.00
2022-09-05T09:52:25.015Z,5964.00
2022-09-05T09:53:25.013Z,5812.00
2022-09-05T09:54:25.016Z,5760.00
2022-09-05T09:55:24.983Z,5772.00
2022-09-05T09:56:24.993Z,5972.00
2022-09-05T09:57:24.983Z,5900.00
2022-09-05T09:58:26.174Z,5684.00
2022-09-05T09:59:24.940Z,5812.00
2022-09-05T10:00:24.927Z,6020.00
2022-09-05T10:01:35.049Z,5916.00
2022-09-05T10:06:55.690Z,5972.00
2022-09-05T10:10:32.467Z,5944.00
2022-09-05T10:10:34.660Z,5928.00
2022-09-05T10:10:35.088Z,5740.00
2022-09-05T10:10:35.710Z,5772.00
2022-09-05T10:10:46.918Z,5784.00
2022-09-05T10:10:51.892Z,5748.00
2022-09-05T10:11:08.153Z,5784.00
2022-09-05T10:11:09.345Z,5820.00
2022-09-05T10:11:53.009Z,5772.00
2022-09-05T10:13:26.785Z,5688.00
2022-09-05T10:14:47.721Z,5688.00
2022-09-05T10:15:31.067Z,5704.00
2022-09-05T10:16:25.807Z,5684.00
2022-09-05T10:17:24.746Z,5664.00
2022-09-05T10:18:24.774Z,5660.00
2022-09-05T10:20:08.148Z,5652.00
2022-09-05T10:20:29.274Z,5692.00
2022-09-05T10:21:24.703Z,5676.00
2022-09-05T10:22:40.094Z,5652.00
2022-09-05T10:23:25.829Z,5652.00
2022-09-05T10:24:24.675Z,5648.00
2022-09-05T10:25:24.684Z,5700.00
2022-09-05T10:26:24.775Z,5720.00
2022-09-05T10:27:25.154Z,5732.00
2022-09-05T10:28:24.628Z,5720.00
2022-09-05T10:29:35.000Z,5708.00
2022-09-05T10:30:51.678Z,5692.00
2022-09-05T10:33:13.995Z,5620.00
2022-09-05T10:35:02.907Z,5628.00
2022-09-05T10:35:17.387Z,5696.00
2022-09-05T10:35:17.538Z,5644.00
2022-09-05T10:35:26.418Z,5600.00
2022-09-05T10:36:24.630Z,5608.00
2022-09-05T10:37:24.555Z,5560.00
2022-09-05T10:38:24.524Z,5628.00
2022-09-05T10:39:24.596Z,5672.00
2022-09-05T10:40:24.503Z,5712.00
2022-09-05T10:41:24.495Z,5728.00
2022-09-05T10:42:24.511Z,5724.00
2022-09-05T10:43:24.518Z,5636.00
2022-09-05T10:44:24.459Z,5616.00
2022-09-05T10:45:38.023Z,5584.00
2022-09-05T10:46:50.709Z,5596.00
2022-09-05T10:47:25.470Z,5572.00
2022-09-05T10:48:24.455Z,5588.00
2022-09-05T10:49:24.462Z,5624.00
2022-09-05T10:50:24.400Z,5216.00
2022-09-05T10:51:27.200Z,5108.00
2022-09-05T10:52:24.670Z,4872.00
2022-09-05T10:53:24.493Z,5384.00
2022-09-05T10:54:24.429Z,5116.00
2022-09-05T10:55:24.343Z,4784.00
2022-09-05T10:56:27.113Z,5464.00
2022-09-05T10:57:24.343Z,5292.00
2022-09-05T10:58:26.790Z,5576.00
2022-09-05T11:02:20.213Z,5540.00
2022-09-05T11:02:21.508Z,5496.00
2022-09-05T11:02:30.090Z,5320.00
2022-09-05T11:02:34.759Z,5616.00
2022-09-05T11:03:25.401Z,5504.00
2022-09-05T11:04:24.663Z,5680.00
2022-09-05T11:05:24.322Z,5656.00
2022-09-05T11:06:24.786Z,5728.00
2022-09-05T11:07:24.764Z,5824.00
2022-09-05T11:08:25.204Z,5916.00
2022-09-05T11:09:24.194Z,6016.00
2022-09-05T11:10:24.202Z,6000.00
2022-09-05T11:11:28.714Z,5948.00
2022-09-05T11:12:25.160Z,6084.00
2022-09-05T11:13:24.303Z,6040.00
2022-09-05T11:14:26.911Z,6036.00
2022-09-05T11:15:24.148Z,6028.00
2022-09-05T11:16:24.152Z,2516.00
2022-09-05T11:17:24.110Z,2516.00
2022-09-05T11:18:24.100Z,3344.00
2022-09-05T11:19:25.113Z,2728.00
2022-09-05T11:20:34.811Z,2660.00
2022-09-05T11:21:25.067Z,2748.00
2022-09-05T11:22:24.422Z,3956.00
2022-09-05T11:23:24.154Z,4680.00
2022-09-05T11:24:27.220Z,6156.00
2022-09-05T11:25:39.705Z,6048.00
2022-09-05T11:26:25.015Z,6004.00
2022-09-05T11:27:26.001Z,5948.00
2022-09-05T11:28:24.013Z,5960.00
2022-09-05T11:29:24.189Z,6096.00
2022-09-05T11:30:30.378Z,6248.00
2022-09-05T11:31:24.999Z,6144.00
2022-09-05T11:35:21.701Z,6220.00
2022-09-05T11:39:45.603Z,2872.00
2022-09-05T11:39:47.316Z,3000.00
2022-09-05T11:39:52.068Z,6892.00
2022-09-05T11:39:52.068Z,6792.00
2022-09-05T11:40:02.008Z,6872.00
2022-09-05T11:40:09.703Z,4744.00
2022-09-05T11:40:10.857Z,4228.00
2022-09-05T11:40:41.590Z,6872.00
2022-09-05T11:41:25.828Z,6852.00
2022-09-05T11:42:23.915Z,6804.00
2022-09-05T11:43:23.905Z,6724.00
2022-09-05T11:44:26.145Z,6716.00
2022-09-05T11:45:23.813Z,6592.00
2022-09-05T11:46:24.011Z,6468.00
2022-09-05T11:47:29.963Z,6396.00
2022-09-05T11:48:24.972Z,6324.00
2022-09-05T11:49:23.772Z,6276.00
2022-09-05T11:50:23.783Z,6268.00
2022-09-05T11:51:32.353Z,6164.00
2022-09-05T11:52:24.770Z,6004.00
2022-09-05T11:53:23.731Z,5860.00
2022-09-05T11:54:23.721Z,5728.00
2022-09-05T11:55:23.704Z,5684.00
2022-09-05T11:56:28.084Z,5692.00
2022-09-05T11:57:33.638Z,2528.00
2022-09-05T11:58:44.793Z,2372.00
2022-09-05T11:59:33.869Z,2416.00
2022-09-05T12:00:32.834Z,5712.00
2022-09-05T12:01:41.622Z,5648.00
2022-09-05T12:02:24.819Z,5656.00
2022-09-05T12:03:59.825Z,5700.00
2022-09-05T12:04:24.608Z,3472.00
2022-09-05T12:05:49.921Z,2800.00
2022-09-05T12:06:24.637Z,2600.00
2022-09-05T12:07:32.021Z,2508.00
2022-09-05T12:08:24.653Z,2752.00
2022-09-05T12:09:24.557Z,2952.00
2022-09-05T12:10:46.863Z,3228.00
2022-09-05T12:11:24.553Z,5948.00
2022-09-05T12:12:32.788Z,5824.00
2022-09-05T12:13:26.632Z,5756.00
2022-09-05T12:14:25.738Z,5736.00
2022-09-05T12:15:24.491Z,5716.00
2022-09-05T12:16:26.719Z,5664.00
2022-09-05T12:17:34.757Z,5512.00
2022-09-05T12:18:24.553Z,5472.00
2022-09-05T12:19:23.620Z,5428.00
2022-09-05T12:20:23.439Z,5388.00
2022-09-05T12:21:23.661Z,5352.00
2022-09-05T12:22:23.739Z,5352.00
2022-09-05T12:23:55.251Z,5336.00
2022-09-05T12:25:25.210Z,5324.00
2022-09-05T12:27:35.817Z,5324.00
2022-09-05T12:27:40.718Z,5400.00
2022-09-05T12:27:42.377Z,5360.00
2022-09-05T12:29:27.968Z,5552.00
2022-09-05T12:29:32.862Z,5728.00
2022-09-05T12:30:28.887Z,5864.00
2022-09-05T12:32:50.302Z,6068.00
2022-09-05T12:35:47.041Z,6276.00
2022-09-05T12:36:05.067Z,6224.00